createdAt,value
2019-02-24T00:00:01.863Z,4.27
2019-02-24T00:05:03.780Z,4.23
2019-02-24T00:10:01.864Z,4.23
2019-02-24T00:15:02.532Z,4.29
2019-02-24T00:20:03.251Z,4.24
2019-02-24T00:25:04.066Z,4.23
2019-02-24T00:30:03.054Z,4.28
2019-02-24T00:35:04.713Z,4.36
2019-02-24T00:40:04.559Z,4.37
2019-02-24T00:45:02.775Z,4.37
2019-02-24T00:50:03.846Z,4.44
2019-02-24T00:55:04.190Z,4.41
2019-02-24T01:00:02.353Z,4.39
2019-02-24T01:05:04.361Z,4.41
2019-02-24T01:10:04.970Z,4.36
2019-02-24T01:15:03.862Z,4.32
2019-02-24T01:20:03.949Z,4.33
2019-02-24T01:25:05.567Z,4.28
2019-02-24T01:30:02.798Z,4.26
2019-02-24T01:35:03.997Z,4.18
2019-02-24T01:40:05.782Z,4.16
2019-02-24T01:45:02.517Z,4.18
2019-02-24T01:50:05.415Z,4.12
2019-02-24T01:55:03.818Z,4.18
2019-02-24T02:00:04.727Z,4.14
2019-02-24T02:05:06.649Z,4.14
2019-02-24T02:10:02.833Z,4.12
2019-02-24T02:15:03.523Z,4.09
2019-02-24T02:20:08.767Z,4.1
2019-02-24T02:25:05.627Z,4.03
2019-02-24T02:30:04.406Z,4.04
2019-02-24T02:35:04.324Z,4.01
2019-02-24T02:40:03.914Z,4.02
2019-02-24T02:45:02.685Z,3.95
2019-02-24T02:50:04.267Z,4.02
2019-02-24T02:55:04.675Z,4.07
2019-02-24T03:00:02.391Z,4.03
2019-02-24T03:05:03.674Z,4.04
2019-02-24T03:10:04.253Z,4.01
2019-02-24T03:15:01.911Z,3.98
2019-02-24T03:20:05.670Z,3.93
2019-02-24T03:25:06.832Z,3.88
2019-02-24T03:30:05.188Z,3.79
2019-02-24T03:35:05.872Z,3.76
2019-02-24T03:40:05.833Z,3.71
2019-02-24T03:45:05.761Z,3.61
2019-02-24T03:50:06.681Z,3.57
2019-02-24T03:55:03.793Z,3.58
2019-02-24T04:00:04.691Z,3.54
2019-02-24T04:05:04.302Z,3.54
2019-02-24T04:10:04.223Z,3.47
2019-02-24T04:15:04.371Z,3.41
2019-02-24T04:20:05.343Z,3.32
2019-02-24T04:25:04.721Z,3.2
2019-02-24T04:30:02.533Z,3.14
2019-02-24T04:35:05.492Z,3.16
2019-02-24T04:40:04.532Z,3.16
2019-02-24T04:45:02.330Z,3.13
2019-02-24T04:50:04.169Z,3.16
2019-02-24T04:55:05.063Z,3.18
2019-02-24T05:00:01.837Z,3.24
2019-02-24T05:05:04.705Z,3.24
2019-02-24T05:10:03.755Z,3.27
2019-02-24T05:15:03.121Z,3.25
2019-02-24T05:20:04.451Z,3.26
2019-02-24T05:25:05.337Z,3.18
2019-02-24T05:30:02.224Z,3.19
2019-02-24T05:35:04.795Z,3.16
2019-02-24T05:40:04.539Z,3.16
2019-02-24T05:45:02.111Z,3.06
2019-02-24T05:50:05.439Z,3.04
2019-02-24T05:55:04.066Z,2.98
2019-02-24T06:00:02.615Z,2.95
2019-02-24T06:05:04.143Z,2.89
2019-02-24T06:10:02.830Z,2.84
2019-02-24T06:15:02.105Z,2.83
2019-02-24T06:20:03.261Z,2.76
2019-02-24T06:25:03.306Z,2.74
2019-02-24T06:30:05.169Z,2.71
2019-02-24T06:35:04.592Z,2.73
2019-02-24T06:40:05.271Z,2.7
2019-02-24T06:45:02.512Z,2.68
2019-02-24T06:50:03.950Z,2.68
2019-02-24T06:55:05.325Z,2.74
2019-02-24T07:00:02.745Z,2.72
2019-02-24T07:05:05.641Z,2.73
2019-02-24T07:10:04.900Z,2.83
2019-02-24T07:15:02.671Z,2.91
2019-02-24T07:20:05.921Z,3.02
2019-02-24T07:25:04.823Z,3.19
2019-02-24T07:30:02.558Z,3.34
2019-02-24T07:35:05.159Z,3.47
2019-02-24T07:40:03.834Z,3.59
2019-02-24T07:45:02.638Z,3.83
2019-02-24T07:50:04.121Z,4.14
2019-02-24T07:55:04.488Z,4.3
2019-02-24T08:00:03.031Z,4.47
2019-02-24T08:05:04.294Z,4.54
2019-02-24T08:10:04.594Z,4.62
2019-02-24T08:15:02.624Z,4.67
2019-02-24T08:20:03.952Z,4.81
2019-02-24T08:25:06.076Z,5.01
2019-02-24T08:30:02.625Z,5.17
2019-02-24T08:35:03.759Z,5.4
2019-02-24T08:40:05.564Z,5.52
2019-02-24T08:45:03.149Z,5.74
2019-02-24T08:50:05.356Z,5.82
2019-02-24T08:55:04.587Z,6.01
2019-02-24T09:00:03.106Z,6.06
2019-02-24T09:05:04.860Z,6.5
2019-02-24T09:10:03.451Z,6.6
2019-02-24T09:15:03.162Z,6.75
2019-02-24T09:20:04.938Z,6.72
2019-02-24T09:25:05.676Z,6.99
2019-02-24T09:30:04.024Z,7.11
2019-02-24T09:35:05.776Z,7.16
2019-02-24T09:40:04.473Z,7.22
2019-02-24T09:45:02.323Z,7.61
2019-02-24T09:50:04.704Z,7.81
2019-02-24T09:55:04.783Z,8.15
2019-02-24T10:00:02.589Z,8.2
2019-02-24T10:05:05.491Z,8.27
2019-02-24T10:10:03.551Z,8.37
2019-02-24T10:15:03.207Z,8.47
2019-02-24T10:20:03.806Z,8.53
2019-02-24T10:25:05.911Z,8.65
2019-02-24T10:30:02.659Z,8.91
2019-02-24T10:35:04.206Z,8.95
2019-02-24T10:40:04.765Z,9.45
2019-02-24T10:45:02.624Z,9.64
2019-02-24T10:50:04.405Z,10.03
2019-02-24T10:55:03.969Z,9.99
2019-02-24T11:00:02.612Z,10.41
2019-02-24T11:05:04.161Z,10.5
2019-02-24T11:10:04.764Z,10.25
2019-02-24T11:15:02.406Z,10.49
2019-02-24T11:20:04.584Z,10.84
2019-02-24T11:25:05.180Z,10.84
2019-02-24T11:30:01.748Z,10.73
2019-02-24T11:35:04.388Z,11.04
2019-02-24T11:40:03.132Z,10.97
2019-02-24T11:45:02.142Z,11.2
2019-02-24T11:50:03.161Z,11.45
2019-02-24T11:55:03.822Z,11.78
2019-02-24T12:00:02.617Z,11.94
2019-02-24T12:05:03.439Z,11.91
2019-02-24T12:10:05.039Z,12.42
2019-02-24T12:15:03.201Z,12.7
2019-02-24T12:20:04.668Z,12.93
2019-02-24T12:25:06.534Z,13.12
2019-02-24T12:30:03.280Z,13.04
2019-02-24T12:35:04.654Z,12.89
2019-02-24T12:40:05.380Z,12.9
2019-02-24T12:45:03.586Z,12.92
2019-02-24T12:50:04.920Z,12.93
2019-02-24T12:55:04.371Z,12.85
2019-02-24T13:00:02.537Z,12.79
2019-02-24T13:05:04.285Z,12.82
2019-02-24T13:10:05.010Z,12.87
2019-02-24T13:15:03.376Z,12.99
2019-02-24T13:20:04.190Z,13.05
2019-02-24T13:25:04.163Z,13.06
2019-02-24T13:30:02.967Z,13.16
2019-02-24T13:35:04.419Z,13.34
2019-02-24T13:40:04.314Z,13.24
2019-02-24T13:45:03.049Z,13.43
2019-02-24T13:50:04.885Z,13.69
2019-02-24T13:55:03.631Z,13.83
2019-02-24T14:00:02.806Z,13.89
2019-02-24T14:05:04.948Z,13.89
2019-02-24T14:10:04.268Z,13.98
2019-02-24T14:15:03.301Z,13.95
2019-02-24T14:20:04.457Z,14.04
2019-02-24T14:25:05.134Z,14.07
2019-02-24T14:30:03.172Z,14.15
2019-02-24T14:35:04.240Z,14.29
2019-02-24T14:40:05.128Z,14.38
2019-02-24T14:45:02.790Z,14.32
2019-02-24T14:50:04.433Z,14.3
2019-02-24T14:55:04.821Z,14.35
2019-02-24T15:00:03.098Z,14.37
2019-02-24T15:05:04.449Z,14.26
2019-02-24T15:10:04.206Z,14.29
2019-02-24T15:15:02.440Z,14.37
2019-02-24T15:20:04.098Z,14.28
2019-02-24T15:25:04.765Z,14.19
2019-02-24T15:30:02.910Z,14.22
2019-02-24T15:35:03.445Z,14.19
2019-02-24T15:40:04.472Z,14.21
2019-02-24T15:45:02.473Z,14.19
2019-02-24T15:50:04.718Z,14.2
2019-02-24T15:55:05.720Z,14.19
2019-02-24T16:00:02.426Z,14.2
2019-02-24T16:05:06.915Z,14.22
2019-02-24T16:10:05.698Z,14.18
2019-02-24T16:15:03.141Z,14.08
2019-02-24T16:20:04.443Z,13.71
2019-02-24T16:25:04.771Z,13.77
2019-02-24T16:30:02.545Z,13.55
2019-02-24T16:35:04.242Z,13.02
2019-02-24T16:40:04.938Z,12.79
2019-02-24T16:45:02.545Z,12.85
2019-02-24T16:50:03.866Z,12.45
2019-02-24T16:55:04.060Z,12.05
2019-02-24T17:00:02.501Z,12.34
2019-02-24T17:05:03.642Z,11.93
2019-02-24T17:10:04.046Z,11.94
2019-02-24T17:15:02.574Z,11.94
2019-02-24T17:20:03.637Z,11.78
2019-02-24T17:25:05.264Z,11.33
2019-02-24T17:30:02.721Z,10.6
2019-02-24T17:35:04.802Z,9.96
2019-02-24T17:40:04.076Z,9.54
2019-02-24T17:45:02.632Z,9.31
2019-02-24T17:50:04.405Z,9.12
2019-02-24T17:55:03.931Z,8.91
2019-02-24T18:00:02.586Z,8.92
2019-02-24T18:05:04.288Z,8.97
2019-02-24T18:10:02.645Z,9.14
2019-02-24T18:15:02.227Z,9.61
2019-02-24T18:20:02.527Z,10.05
2019-02-24T18:25:03.738Z,10.19
2019-02-24T18:30:02.416Z,10.29
2019-02-24T18:35:02.707Z,10.33
2019-02-24T18:40:05.676Z,10.37
2019-02-24T18:45:02.693Z,10.29
2019-02-24T18:50:04.140Z,10.19
2019-02-24T18:55:06.832Z,10.21
2019-02-24T19:00:03.237Z,10.15
2019-02-24T19:05:06.032Z,10.28
2019-02-24T19:10:03.028Z,10.21
2019-02-24T19:15:03.705Z,10.07
2019-02-24T19:20:05.316Z,9.95
2019-02-24T19:25:04.380Z,9.88
2019-02-24T19:30:02.612Z,9.81
2019-02-24T19:35:04.305Z,9.81
2019-02-24T19:40:04.844Z,9.86
2019-02-24T19:45:02.546Z,9.92
2019-02-24T19:50:04.189Z,10.04
2019-02-24T19:55:04.572Z,10.24
2019-02-24T20:00:03.212Z,10.16
2019-02-24T20:05:04.993Z,10.09
2019-02-24T20:10:03.831Z,10.05
2019-02-24T20:15:02.679Z,10.04
2019-02-24T20:20:04.398Z,9.91
2019-02-24T20:25:04.494Z,9.83
2019-02-24T20:30:04.153Z,9.75
2019-02-24T20:35:06.110Z,9.67
2019-02-24T20:40:05.388Z,9.57
2019-02-24T20:45:04.727Z,9.52
2019-02-24T20:50:06.138Z,9.53
2019-02-24T20:55:06.344Z,9.51
2019-02-24T21:00:06.583Z,9.53
2019-02-24T21:05:06.741Z,9.4
2019-02-24T21:10:05.249Z,9.38
2019-02-24T21:15:06.105Z,9.27
2019-02-24T21:20:05.591Z,9.27
2019-02-24T21:25:07.754Z,9.3
2019-02-24T21:30:09.362Z,9.04
2019-02-24T21:35:06.332Z,8.45
2019-02-24T21:40:08.228Z,8.11
2019-02-24T21:45:08.575Z,7.73
2019-02-24T21:50:07.677Z,7.09
2019-02-24T21:55:07.771Z,6.65
2019-02-24T22:00:07.277Z,6.29
2019-02-24T22:05:03.949Z,6.01
2019-02-24T22:10:03.512Z,5.7
2019-02-24T22:15:04.001Z,5.34
2019-02-24T22:20:04.421Z,5.56
2019-02-24T22:25:04.619Z,5.62
2019-02-24T22:30:04.207Z,5.96
2019-02-24T22:35:04.919Z,6.55
2019-02-24T22:40:08.509Z,6.69
2019-02-24T22:45:08.590Z,6.9
2019-02-24T22:50:06.895Z,7.09
2019-02-24T22:55:07.820Z,7.1
2019-02-24T23:00:05.839Z,7.07
2019-02-24T23:05:04.239Z,6.66
2019-02-24T23:10:06.309Z,6.25
2019-02-24T23:15:02.562Z,6.56
2019-02-24T23:20:06.815Z,7.03
2019-02-24T23:25:08.221Z,7.35
2019-02-24T23:30:08.093Z,7.43
2019-02-24T23:35:07.036Z,7.22
2019-02-24T23:40:06.833Z,7.24
2019-02-24T23:45:10.133Z,7.4
2019-02-24T23:50:05.603Z,7.49
2019-02-24T23:55:06.218Z,7.45
